createdAt,value
2018-12-01T00:01:05.856Z,31.83
2018-12-01T00:03:35.923Z,21.63
2018-12-01T00:06:06.178Z,32.23
2018-12-01T00:08:36.721Z,32.37
2018-12-01T00:11:07.028Z,31.93
2018-12-01T00:13:37.492Z,28.13
2018-12-01T00:16:08.953Z,28.50
2018-12-01T00:18:38.771Z,27.17
2018-12-01T00:21:08.666Z,26.00
2018-12-01T00:23:38.926Z,29.17
2018-12-01T00:26:09.211Z,23.93
2018-12-01T00:28:39.462Z,26.70
2018-12-01T00:31:09.531Z,31.00
2018-12-01T00:33:39.608Z,30.53
2018-12-01T00:36:09.864Z,29.10
2018-12-01T00:38:40.218Z,30.30
2018-12-01T00:41:11.065Z,32.57
2018-12-01T00:43:41.425Z,33.30
2018-12-01T00:46:11.730Z,30.10
2018-12-01T00:48:42.094Z,34.63
2018-12-01T00:51:12.596Z,30.30
2018-12-01T00:53:42.545Z,26.67
2018-12-01T00:56:12.446Z,33.00
2018-12-01T00:58:43.786Z,32.87
2018-12-01T01:01:14.788Z,37.80
2018-12-01T01:03:45.068Z,30.17
2018-12-01T01:06:15.096Z,30.87
2018-12-01T01:08:45.466Z,28.23
2018-12-01T01:11:15.381Z,33.83
2018-12-01T01:13:45.714Z,29.17
2018-12-01T01:16:16.153Z,36.17
2018-12-01T01:18:46.369Z,34.50
2018-12-01T01:21:16.943Z,30.20
2018-12-01T01:23:47.647Z,32.33
2018-12-01T01:26:18.047Z,31.43
2018-12-01T01:28:48.063Z,37.27
2018-12-01T01:31:17.899Z,30.33
2018-12-01T01:33:48.364Z,39.93
2018-12-01T01:36:18.141Z,29.03
2018-12-01T01:38:47.878Z,36.80
2018-12-01T01:41:17.635Z,33.17
2018-12-01T01:43:47.471Z,38.77
2018-12-01T01:46:17.326Z,37.03
2018-12-01T01:48:47.118Z,37.30
2018-12-01T01:51:16.840Z,34.37
2018-12-01T01:53:46.975Z,32.90
2018-12-01T01:56:16.912Z,34.23
2018-12-01T01:58:48.188Z,32.70
2018-12-01T02:01:18.298Z,32.97
2018-12-01T02:03:48.734Z,25.07
2018-12-01T02:06:18.672Z,28.40
2018-12-01T02:08:48.942Z,26.87
2018-12-01T02:11:18.903Z,35.50
2018-12-01T02:13:49.382Z,32.60
2018-12-01T02:16:19.653Z,26.07
2018-12-01T02:18:50.329Z,28.43
2018-12-01T02:21:20.109Z,26.27
2018-12-01T02:23:50.142Z,29.53
2018-12-01T02:26:20.012Z,31.27
2018-12-01T02:28:49.666Z,30.07
2018-12-01T02:31:20.053Z,27.77
2018-12-01T02:33:50.015Z,25.87
2018-12-01T02:36:20.677Z,27.73
2018-12-01T02:38:50.405Z,29.07
2018-12-01T02:41:20.133Z,28.73
2018-12-01T02:44:06.532Z,24.37
2018-12-01T02:46:53.166Z,38.27
2018-12-01T02:49:23.427Z,28.50
2018-12-01T02:51:53.190Z,31.07
2018-12-01T02:54:22.952Z,36.60
2018-12-01T02:56:53.035Z,39.13
2018-12-01T02:59:22.856Z,39.83
2018-12-01T03:01:52.935Z,32.93
2018-12-01T03:04:22.806Z,36.23
2018-12-01T03:06:52.960Z,31.10
2018-12-01T03:09:23.006Z,35.77
2018-12-01T03:11:53.330Z,35.07
2018-12-01T03:14:23.032Z,34.87
2018-12-01T03:16:52.721Z,38.07
2018-12-01T03:19:22.473Z,30.07
2018-12-01T03:21:52.411Z,32.80
2018-12-01T03:24:22.326Z,34.30
2018-12-01T03:26:52.470Z,30.23
2018-12-01T03:29:22.565Z,32.77
2018-12-01T03:31:52.459Z,31.17
2018-12-01T03:34:22.108Z,29.30
2018-12-01T03:36:52.170Z,29.70
2018-12-01T03:39:22.730Z,30.30
2018-12-01T03:41:52.697Z,32.40
2018-12-01T03:44:22.685Z,26.77
2018-12-01T03:46:52.553Z,31.73
2018-12-01T03:49:22.445Z,25.87
2018-12-01T03:51:52.984Z,32.00
2018-12-01T03:54:22.714Z,23.87
2018-12-01T03:56:52.471Z,34.33
2018-12-01T03:59:22.322Z,30.33
2018-12-01T04:01:52.509Z,26.43
2018-12-01T04:04:22.386Z,32.53
2018-12-01T04:06:52.602Z,32.00
2018-12-01T04:09:23.956Z,29.20
2018-12-01T04:11:54.225Z,29.50
2018-12-01T04:14:24.016Z,29.73
2018-12-01T04:16:53.840Z,32.93
2018-12-01T04:19:23.615Z,31.57
2018-12-01T04:21:53.799Z,26.60
2018-12-01T04:24:23.975Z,31.60
2018-12-01T04:26:53.910Z,32.90
2018-12-01T04:29:24.062Z,27.47
2018-12-01T04:31:57.141Z,24.83
2018-12-01T04:34:27.109Z,27.60
2018-12-01T04:36:56.880Z,32.10
2018-12-01T04:39:27.100Z,29.53
2018-12-01T04:41:57.521Z,30.77
2018-12-01T04:44:27.557Z,26.53
2018-12-01T04:46:57.636Z,26.17
2018-12-01T04:49:27.576Z,25.67
2018-12-01T04:51:57.746Z,26.63
2018-12-01T04:54:28.019Z,27.00
2018-12-01T04:56:57.809Z,23.27
2018-12-01T04:59:27.856Z,20.80
2018-12-01T05:01:57.694Z,25.97
2018-12-01T05:04:28.308Z,25.13
2018-12-01T05:06:58.056Z,24.40
2018-12-01T05:09:27.779Z,26.20
2018-12-01T05:11:57.866Z,22.47
2018-12-01T05:14:27.547Z,18.40
2018-12-01T05:16:57.439Z,22.80
2018-12-01T05:19:27.104Z,20.23
2018-12-01T05:21:56.969Z,23.93
2018-12-01T05:24:26.902Z,30.00
2018-12-01T05:26:56.599Z,23.57
2018-12-01T05:29:26.466Z,22.00
2018-12-01T05:31:56.331Z,24.10
2018-12-01T05:34:26.073Z,26.30
2018-12-01T05:36:56.183Z,20.83
2018-12-01T05:39:26.109Z,24.53
2018-12-01T05:41:56.049Z,23.53
2018-12-01T05:44:25.894Z,33.10
2018-12-01T05:46:55.597Z,23.83
2018-12-01T05:49:25.813Z,21.07
2018-12-01T05:51:55.954Z,20.87
2018-12-01T05:54:25.740Z,24.07
2018-12-01T05:56:55.655Z,19.57
2018-12-01T05:59:26.174Z,19.07
2018-12-01T06:01:56.106Z,19.87
2018-12-01T06:04:25.956Z,17.83
2018-12-01T06:06:55.713Z,23.10
2018-12-01T06:09:25.435Z,19.80
2018-12-01T06:11:55.240Z,25.10
2018-12-01T06:14:25.088Z,20.73
2018-12-01T06:16:54.960Z,21.97
2018-12-01T06:19:25.219Z,20.00
2018-12-01T06:21:54.938Z,20.20
2018-12-01T06:24:24.751Z,24.20
2018-12-01T06:26:55.140Z,25.30
2018-12-01T06:29:24.980Z,25.03
2018-12-01T06:31:55.353Z,21.67
2018-12-01T06:34:25.133Z,24.47
2018-12-01T06:36:54.873Z,18.27
2018-12-01T06:39:24.932Z,23.27
2018-12-01T06:41:54.649Z,20.43
2018-12-01T06:44:24.355Z,17.40
2018-12-01T06:46:54.554Z,21.47
2018-12-01T06:49:24.525Z,22.57
2018-12-01T06:51:54.418Z,18.70
2018-12-01T06:54:24.495Z,20.10
2018-12-01T06:56:54.320Z,23.70
2018-12-01T06:59:24.500Z,19.93
2018-12-01T07:01:54.661Z,18.63
2018-12-01T07:04:24.620Z,19.07
2018-12-01T07:06:54.740Z,14.43
2018-12-01T07:09:24.881Z,12.90
2018-12-01T07:11:55.838Z,18.63
2018-12-01T07:14:26.524Z,15.93
2018-12-01T07:16:56.848Z,14.07
2018-12-01T07:19:26.961Z,17.13
2018-12-01T07:21:56.730Z,20.83
2018-12-01T07:24:26.870Z,18.30
2018-12-01T07:26:57.057Z,18.63
2018-12-01T07:29:26.986Z,15.13
2018-12-01T07:31:56.821Z,16.13
2018-12-01T07:34:27.010Z,16.63
2018-12-01T07:36:57.226Z,15.50
2018-12-01T07:39:27.554Z,13.57
2018-12-01T07:41:59.003Z,17.33
2018-12-01T07:44:29.734Z,18.17
2018-12-01T07:47:00.313Z,15.70
2018-12-01T07:49:30.086Z,15.60
2018-12-01T07:52:00.251Z,18.83
2018-12-01T07:54:30.056Z,13.80
2018-12-01T07:56:59.880Z,17.67
2018-12-01T07:59:29.731Z,20.37
2018-12-01T08:01:59.473Z,21.97
2018-12-01T08:04:29.146Z,13.93
2018-12-01T08:06:59.736Z,20.80
2018-12-01T08:09:30.346Z,18.93
2018-12-01T08:12:00.024Z,20.13
2018-12-01T08:14:30.020Z,17.37
2018-12-01T08:17:06.494Z,18.23
2018-12-01T08:19:36.365Z,16.27
2018-12-01T08:22:06.225Z,18.20
2018-12-01T08:24:36.199Z,17.13
2018-12-01T08:27:06.315Z,14.17
2018-12-01T08:29:36.025Z,19.50
2018-12-01T08:32:06.735Z,12.43
2018-12-01T08:34:37.035Z,14.63
2018-12-01T08:37:07.436Z,13.20
2018-12-01T08:39:37.189Z,18.73
2018-12-01T08:42:07.240Z,14.20
2018-12-01T08:44:36.974Z,11.37
2018-12-01T08:47:07.128Z,10.13
2018-12-01T08:49:37.055Z,16.13
2018-12-01T08:52:07.463Z,14.57
2018-12-01T08:54:37.400Z,14.30
2018-12-01T08:57:08.586Z,12.13
2018-12-01T08:59:39.105Z,16.00
2018-12-01T09:02:10.146Z,12.33
2018-12-01T09:04:40.043Z,13.70
2018-12-01T09:07:10.301Z,11.13
2018-12-01T09:09:40.279Z,14.33
2018-12-01T09:12:11.039Z,14.30
2018-12-01T09:14:41.075Z,13.37
2018-12-01T09:17:11.215Z,15.90
2018-12-01T09:19:40.935Z,13.33
2018-12-01T09:22:11.669Z,13.47
2018-12-01T09:24:42.244Z,17.50
2018-12-01T09:27:12.316Z,12.63
2018-12-01T09:29:42.395Z,11.90
2018-12-01T09:32:12.525Z,14.80
2018-12-01T09:34:42.257Z,15.20
2018-12-01T09:37:12.044Z,14.50
2018-12-01T09:39:41.782Z,13.30
2018-12-01T09:42:11.644Z,19.93
2018-12-01T09:44:41.451Z,12.97
2018-12-01T09:47:18.318Z,16.70
2018-12-01T09:49:48.024Z,10.57
2018-12-01T09:52:17.876Z,10.53
2018-12-01T09:54:48.169Z,14.73
2018-12-01T09:57:18.194Z,17.37
2018-12-01T09:59:48.088Z,15.47
2018-12-01T10:02:17.964Z,15.03
2018-12-01T10:04:47.955Z,9.07
2018-12-01T10:07:17.707Z,11.33
2018-12-01T10:09:47.618Z,9.87
2018-12-01T10:12:17.533Z,14.07
2018-12-01T10:14:47.385Z,10.90
2018-12-01T10:17:18.059Z,13.27
2018-12-01T10:19:48.009Z,11.37
2018-12-01T10:22:18.044Z,9.73
2018-12-01T10:24:48.012Z,14.60
2018-12-01T10:27:17.957Z,12.67
2018-12-01T10:29:47.813Z,12.27
2018-12-01T10:32:17.730Z,10.37
2018-12-01T10:34:48.113Z,14.83
2018-12-01T10:37:18.028Z,10.10
2018-12-01T10:39:47.746Z,14.07
2018-12-01T10:42:17.418Z,11.87
2018-12-01T10:44:47.176Z,11.20
2018-12-01T10:47:17.068Z,10.10
2018-12-01T10:49:47.187Z,12.37
2018-12-01T10:52:16.920Z,9.83
2018-12-01T10:54:47.015Z,11.03
2018-12-01T10:57:17.100Z,18.37
2018-12-01T10:59:47.640Z,13.40
2018-12-01T11:03:24.519Z,13.40
2018-12-01T11:05:55.464Z,12.57
2018-12-01T11:08:25.208Z,8.87
2018-12-01T11:10:55.631Z,10.93
2018-12-01T11:13:25.504Z,8.53
2018-12-01T11:15:55.342Z,10.23
2018-12-01T11:18:25.148Z,8.77
2018-12-01T11:20:55.130Z,12.67
2018-12-01T11:23:25.012Z,17.73
2018-12-01T11:25:55.409Z,10.10
2018-12-01T11:28:25.344Z,9.13
2018-12-01T11:30:55.394Z,8.90
2018-12-01T11:33:25.899Z,7.93
2018-12-01T11:35:55.728Z,10.00
2018-12-01T11:38:25.653Z,11.37
2018-12-01T11:40:55.443Z,12.37
2018-12-01T11:43:25.405Z,12.93
2018-12-01T11:45:55.764Z,11.07
2018-12-01T11:48:25.917Z,10.47
2018-12-01T11:50:55.820Z,10.73
2018-12-01T11:53:25.958Z,16.40
2018-12-01T11:55:55.986Z,10.03
2018-12-01T11:58:25.917Z,9.10
2018-12-01T12:00:55.748Z,9.40
2018-12-01T12:03:25.754Z,9.03
2018-12-01T12:05:55.853Z,15.63
2018-12-01T12:08:27.791Z,10.47
2018-12-01T12:10:59.013Z,10.93
2018-12-01T12:13:29.213Z,10.27
2018-12-01T12:15:59.101Z,12.73
2018-12-01T12:18:29.060Z,10.67
2018-12-01T12:20:59.864Z,9.77
2018-12-01T12:23:29.798Z,11.33
2018-12-01T12:25:59.639Z,10.57
2018-12-01T12:28:29.810Z,13.03
2018-12-01T12:30:59.754Z,9.80
2018-12-01T12:33:29.793Z,9.03
2018-12-01T12:35:59.828Z,6.60
2018-12-01T12:38:29.534Z,11.67
2018-12-01T12:40:59.455Z,9.27
2018-12-01T12:43:29.261Z,9.33
2018-12-01T12:45:59.140Z,10.60
2018-12-01T12:48:29.165Z,10.90
2018-12-01T12:50:59.329Z,7.77
2018-12-01T12:53:29.277Z,10.73
2018-12-01T12:55:59.338Z,11.43
2018-12-01T12:58:29.361Z,10.07
2018-12-01T13:00:59.364Z,7.70
2018-12-01T13:03:29.324Z,10.50
2018-12-01T13:05:59.351Z,7.43
2018-12-01T13:08:29.441Z,9.27
2018-12-01T13:10:59.397Z,10.90
2018-12-01T13:13:29.263Z,9.10
2018-12-01T13:15:59.024Z,10.03
2018-12-01T13:18:29.213Z,10.77
2018-12-01T13:20:59.133Z,7.57
2018-12-01T13:23:29.186Z,11.60
2018-12-01T13:25:59.162Z,14.27
2018-12-01T13:28:29.338Z,8.20
2018-12-01T13:31:01.458Z,8.10
2018-12-01T13:33:38.090Z,12.37
2018-12-01T13:36:08.558Z,10.50
2018-12-01T13:38:39.072Z,12.03
2018-12-01T13:41:09.099Z,9.00
2018-12-01T13:43:39.197Z,11.93
2018-12-01T13:46:09.467Z,13.57
2018-12-01T13:48:39.696Z,8.20
2018-12-01T13:51:10.075Z,8.57
2018-12-01T13:53:40.133Z,11.50
2018-12-01T13:56:09.947Z,9.07
2018-12-01T13:58:40.037Z,7.87
2018-12-01T14:01:09.967Z,10.10
2018-12-01T14:03:39.882Z,9.97
2018-12-01T14:06:10.520Z,8.23
2018-12-01T14:08:40.262Z,10.23
2018-12-01T14:11:10.217Z,11.77
2018-12-01T14:13:40.028Z,13.50
2018-12-01T14:16:10.054Z,6.37
2018-12-01T14:18:39.981Z,10.03
2018-12-01T14:21:09.773Z,8.07
2018-12-01T14:23:39.712Z,7.30
2018-12-01T14:26:09.512Z,9.90
2018-12-01T14:28:39.251Z,6.40
2018-12-01T14:31:09.266Z,7.63
2018-12-01T14:33:39.000Z,9.97
2018-12-01T14:36:08.854Z,7.87
2018-12-01T14:38:38.827Z,8.43
2018-12-01T14:41:09.002Z,7.80
2018-12-01T14:43:38.734Z,7.73
2018-12-01T14:46:08.548Z,9.23
2018-12-01T14:48:38.326Z,7.50
2018-12-01T14:51:08.099Z,6.67
2018-12-01T14:53:37.922Z,6.77
2018-12-01T14:56:07.988Z,4.30
2018-12-01T14:58:42.440Z,7.83
2018-12-01T15:01:07.736Z,8.00
2018-12-01T15:03:37.724Z,5.73
2018-12-01T15:06:07.622Z,6.37
2018-12-01T15:08:37.688Z,7.20
2018-12-01T15:11:07.884Z,8.20
2018-12-01T15:13:38.004Z,7.87
2018-12-01T15:16:07.943Z,8.37
2018-12-01T15:18:37.802Z,6.53
2018-12-01T15:21:07.711Z,6.60
2018-12-01T15:23:37.685Z,9.50
2018-12-01T15:26:07.720Z,8.87
2018-12-01T15:28:37.870Z,8.83
2018-12-01T15:31:08.285Z,10.03
2018-12-01T15:33:38.421Z,7.97
2018-12-01T15:36:08.276Z,10.40
2018-12-01T15:38:38.276Z,8.30
2018-12-01T15:41:08.520Z,7.40
2018-12-01T15:43:38.913Z,9.90
2018-12-01T15:46:08.810Z,8.43
2018-12-01T15:48:38.710Z,9.93
2018-12-01T15:51:08.467Z,8.23
2018-12-01T15:53:38.689Z,5.07
2018-12-01T15:56:08.786Z,6.70
2018-12-01T15:58:38.863Z,6.53
2018-12-01T16:01:09.147Z,5.73
2018-12-01T16:03:39.074Z,7.67
2018-12-01T16:06:08.969Z,7.83
2018-12-01T16:08:39.945Z,10.63
2018-12-01T16:11:09.905Z,8.43
2018-12-01T16:13:40.543Z,8.73
2018-12-01T16:16:10.971Z,10.63
2018-12-01T16:18:40.982Z,7.87
2018-12-01T16:21:11.011Z,8.00
2018-12-01T16:23:40.835Z,7.47
2018-12-01T16:26:11.239Z,11.57
2018-12-01T16:28:41.120Z,8.37
2018-12-01T16:31:10.906Z,8.00
2018-12-01T16:33:40.785Z,7.57
2018-12-01T16:36:10.940Z,8.93
2018-12-01T16:38:41.335Z,8.90
2018-12-01T16:41:24.542Z,7.03
2018-12-01T16:43:54.344Z,9.23
2018-12-01T16:46:24.365Z,7.20
2018-12-01T16:48:54.305Z,9.00
2018-12-01T16:51:24.399Z,4.30
2018-12-01T16:53:54.211Z,9.63
2018-12-01T16:56:24.118Z,7.83
2018-12-01T16:58:54.020Z,7.87
2018-12-01T17:01:23.901Z,7.63
2018-12-01T17:03:53.717Z,7.80
2018-12-01T17:06:23.533Z,6.57
2018-12-01T17:08:55.912Z,6.27
2018-12-01T17:11:26.507Z,4.70
2018-12-01T17:13:56.349Z,7.10
2018-12-01T17:16:26.108Z,8.80
2018-12-01T17:18:56.096Z,5.80
2018-12-01T17:21:26.175Z,7.13
2018-12-01T17:23:56.025Z,6.77
2018-12-01T17:26:25.875Z,9.27
2018-12-01T17:28:56.050Z,6.97
2018-12-01T17:31:25.991Z,6.37
2018-12-01T17:33:56.126Z,6.90
2018-12-01T17:36:25.905Z,7.63
2018-12-01T17:38:55.856Z,4.53
2018-12-01T17:41:30.014Z,6.63
2018-12-01T17:44:05.198Z,7.07
2018-12-01T17:46:35.067Z,5.87
2018-12-01T17:49:05.061Z,6.50
2018-12-01T17:51:34.951Z,7.30
2018-12-01T17:54:13.681Z,8.27
2018-12-01T17:56:43.741Z,6.07
2018-12-01T17:59:14.223Z,5.60
2018-12-01T18:01:44.335Z,7.73
2018-12-01T18:04:14.745Z,3.97
2018-12-01T18:06:45.074Z,4.40
2018-12-01T18:09:14.909Z,6.33
2018-12-01T18:11:44.812Z,6.23
2018-12-01T18:14:15.170Z,5.80
2018-12-01T18:16:45.053Z,6.13
2018-12-01T18:19:15.365Z,4.30
2018-12-01T18:21:45.144Z,5.67
2018-12-01T18:24:15.400Z,7.83
2018-12-01T18:26:45.128Z,6.97
2018-12-01T18:29:15.402Z,5.57
2018-12-01T18:31:45.551Z,6.03
2018-12-01T18:34:16.962Z,6.83
2018-12-01T18:36:46.974Z,4.33
2018-12-01T18:39:19.841Z,7.23
2018-12-01T18:41:49.723Z,6.07
2018-12-01T18:44:19.495Z,5.67
2018-12-01T18:46:49.292Z,7.40
2018-12-01T18:49:19.135Z,5.73
2018-12-01T18:51:48.884Z,5.83
2018-12-01T18:54:18.678Z,5.87
2018-12-01T18:56:48.495Z,7.13
2018-12-01T18:59:18.556Z,10.33
2018-12-01T19:01:51.443Z,6.13
2018-12-01T19:04:21.214Z,5.77
2018-12-01T19:06:51.104Z,8.27
2018-12-01T19:09:20.886Z,8.73
2018-12-01T19:11:50.619Z,7.57
2018-12-01T19:14:20.384Z,5.73
2018-12-01T19:16:50.299Z,7.57
2018-12-01T19:19:20.265Z,5.03
2018-12-01T19:21:50.020Z,7.03
2018-12-01T19:24:20.624Z,6.53
2018-12-01T19:26:50.498Z,6.47
2018-12-01T19:29:20.712Z,5.93
2018-12-01T19:31:50.719Z,6.73
2018-12-01T19:34:21.139Z,5.70
2018-12-01T19:36:51.072Z,5.67
2018-12-01T19:39:21.735Z,7.70
2018-12-01T19:41:51.951Z,4.50
2018-12-01T19:44:22.898Z,5.73
2018-12-01T19:46:52.772Z,5.50
2018-12-01T19:49:22.685Z,5.60
2018-12-01T19:51:53.280Z,7.37
2018-12-01T19:54:24.318Z,5.70
2018-12-01T19:56:54.170Z,5.57
2018-12-01T19:59:24.422Z,9.27
2018-12-01T20:01:54.444Z,5.23
2018-12-01T20:04:24.419Z,4.60
2018-12-01T20:06:55.129Z,6.33
2018-12-01T20:09:25.697Z,7.17
2018-12-01T20:11:55.609Z,4.97
2018-12-01T20:14:25.490Z,4.17
2018-12-01T20:16:57.583Z,4.70
2018-12-01T20:19:27.402Z,5.97
2018-12-01T20:21:57.116Z,7.13
2018-12-01T20:24:26.852Z,6.73
2018-12-01T20:26:56.538Z,5.85
2018-12-01T20:29:27.493Z,7.23
2018-12-01T20:31:57.329Z,5.03
2018-12-01T20:34:27.470Z,3.63
2018-12-01T20:37:04.484Z,5.90
2018-12-01T20:39:38.939Z,6.93
2018-12-01T20:42:08.873Z,4.63
2018-12-01T20:44:38.893Z,6.67
2018-12-01T20:47:08.795Z,4.17
2018-12-01T20:49:38.722Z,7.57
2018-12-01T20:52:08.720Z,6.87
2018-12-01T20:54:42.606Z,3.67
2018-12-01T20:57:18.164Z,7.43
2018-12-01T20:59:48.579Z,5.00
2018-12-01T21:02:18.871Z,3.70
2018-12-01T21:04:48.934Z,6.43
2018-12-01T21:07:19.333Z,6.03
2018-12-01T21:09:49.102Z,5.97
2018-12-01T21:12:19.262Z,4.30
2018-12-01T21:14:49.006Z,3.93
2018-12-01T21:17:20.868Z,4.53
2018-12-01T21:19:51.153Z,8.77
2018-12-01T21:22:21.098Z,4.07
2018-12-01T21:24:51.163Z,3.57
2018-12-01T21:27:21.024Z,4.33
2018-12-01T21:29:50.916Z,4.50
2018-12-01T21:32:21.103Z,4.33
2018-12-01T21:34:51.077Z,4.40
2018-12-01T21:37:21.245Z,5.40
2018-12-01T21:39:52.693Z,4.57
2018-12-01T21:42:22.772Z,8.00
2018-12-01T21:44:53.508Z,6.07
2018-12-01T21:47:23.388Z,3.73
2018-12-01T21:49:53.180Z,3.27
2018-12-01T21:52:23.261Z,4.63
2018-12-01T21:54:54.187Z,6.70
2018-12-01T21:57:24.823Z,2.70
2018-12-01T21:59:55.013Z,4.73
2018-12-01T22:02:25.300Z,3.83
2018-12-01T22:04:55.706Z,4.43
2018-12-01T22:07:26.646Z,4.20
2018-12-01T22:09:56.657Z,5.03
2018-12-01T22:12:26.862Z,2.63
2018-12-01T22:14:56.777Z,4.33
2018-12-01T22:17:26.847Z,3.73
2018-12-01T22:19:56.884Z,4.27
2018-12-01T22:22:27.131Z,5.50
2018-12-01T22:24:57.611Z,6.37
2018-12-01T22:27:27.615Z,3.80
2018-12-01T22:29:57.678Z,6.40
2018-12-01T22:32:28.127Z,5.00
2018-12-01T22:34:58.295Z,5.43
2018-12-01T22:37:29.197Z,4.27
2018-12-01T22:39:59.147Z,5.10
2018-12-01T22:42:29.145Z,5.07
2018-12-01T22:44:59.365Z,4.43
2018-12-01T22:47:29.285Z,5.13
2018-12-01T22:49:59.361Z,5.47
2018-12-01T22:52:29.421Z,5.97
2018-12-01T22:54:59.474Z,3.47
2018-12-01T22:57:29.310Z,5.23
2018-12-01T22:59:59.328Z,5.50
2018-12-01T23:02:29.457Z,5.30
2018-12-01T23:04:59.398Z,2.73
2018-12-01T23:07:29.335Z,2.20
2018-12-01T23:09:59.094Z,2.93
2018-12-01T23:12:28.934Z,5.40
2018-12-01T23:14:58.787Z,4.30
2018-12-01T23:17:28.778Z,3.77
2018-12-01T23:19:59.167Z,2.97
2018-12-01T23:22:28.931Z,6.80
2018-12-01T23:24:58.830Z,2.00
2018-12-01T23:27:28.637Z,3.17
2018-12-01T23:29:58.796Z,2.10
2018-12-01T23:32:28.686Z,2.80
2018-12-01T23:34:58.619Z,4.43
2018-12-01T23:37:28.802Z,4.37
2018-12-01T23:39:58.856Z,2.33
2018-12-01T23:42:28.593Z,3.20
2018-12-01T23:44:58.526Z,2.43
2018-12-01T23:47:28.457Z,4.60
2018-12-01T23:49:58.291Z,2.70
2018-12-01T23:52:28.081Z,2.87
2018-12-01T23:54:57.771Z,3.33
2018-12-01T23:57:27.606Z,2.43
2018-12-01T23:59:57.291Z,2.17
